Dole-Tavaux Airport

Airport
ICAO code: 
LFGJ
IATA Code: 
DLE
Summary
ICAO Region: 
EUR
Territory: 
Location: 
, Franche-Comte
Serving: 
Dole
Elevation: 
645 ft
Coordinates: 
Aerial View: 
47° 2' 20.45" N, 5° 25' 38.1" E
Metar
Observation
LFGJ 020330Z AUTO 23007KT 9999 FEW023 BKN054 OVC068 05/04 Q1004
Station
Dole Tavaux
Date/Time
2021-12-02 03:30:00
Wind direction
230°
Wind speed
07 kts
Lowest cloud amount
few clouds
Temperature
5°C
Dew point
4°C
Humidity
93%
QNH
1004 hPa
Weather condition
n/a

Runways

Designator Length Width Surface Rops
5/23 2231 45 ASP Yes/Yes
Airport map: 
Aerial View: 

SKYbrary Partners:

Safety knowledge contributed by: